createdAt,value
2018-02-14T03:30:01.689Z,102.93
2018-02-14T03:32:29.437Z,92.15
2018-02-14T03:34:57.198Z,104.40
2018-02-14T03:37:24.996Z,96.40
2018-02-14T03:39:53.525Z,97.68
2018-02-14T03:42:21.400Z,92.95
2018-02-14T03:44:49.206Z,87.03
2018-02-14T03:47:17.905Z,87.95
2018-02-14T03:49:45.652Z,84.37
2018-02-14T03:52:13.462Z,91.05
2018-02-14T03:54:41.209Z,83.87
2018-02-14T03:57:08.978Z,88.93
2018-02-14T03:59:36.783Z,79.10
2018-02-14T04:02:05.292Z,84.55
2018-02-14T04:04:33.039Z,96.78
2018-02-14T04:07:01.599Z,79.95
2018-02-14T04:09:29.341Z,80.28
2018-02-14T04:11:57.093Z,82.65
2018-02-14T04:14:24.901Z,88.72
2018-02-14T04:16:53.433Z,92.90
2018-02-14T04:19:21.205Z,76.78
2018-02-14T04:21:49.175Z,72.40
2018-02-14T04:24:16.949Z,85.62
2018-02-14T04:26:44.713Z,93.25
2018-02-14T04:29:12.550Z,87.12
2018-02-14T04:31:40.317Z,95.05
2018-02-14T04:34:08.100Z,86.05
2018-02-14T04:36:35.904Z,82.07
2018-02-14T04:39:03.721Z,84.85
2018-02-14T04:41:31.463Z,84.03
2018-02-14T04:43:59.320Z,90.45
2018-02-14T04:46:27.074Z,86.18
2018-02-14T04:48:54.814Z,85.60
2018-02-14T04:51:22.615Z,85.62
2018-02-14T04:53:50.365Z,94.85
2018-02-14T04:56:18.114Z,87.32
2018-02-14T04:58:45.908Z,92.22
2018-02-14T05:01:13.755Z,92.53
2018-02-14T05:03:42.350Z,84.62
2018-02-14T05:06:10.193Z,85.78
2018-02-14T05:08:37.951Z,91.07
2018-02-14T05:11:05.705Z,93.00
2018-02-14T05:13:34.335Z,90.20
2018-02-14T05:16:02.905Z,90.20
2018-02-14T05:18:30.754Z,101.95
2018-02-14T05:20:58.613Z,76.65
2018-02-14T05:23:26.366Z,103.20
2018-02-14T05:25:54.122Z,94.60
2018-02-14T05:28:21.917Z,91.65
2018-02-14T05:30:49.681Z,93.00
2018-02-14T05:33:17.441Z,110.35
2018-02-14T05:35:45.256Z,104.57
2018-02-14T05:38:13.085Z,103.30
2018-02-14T05:40:41.597Z,103.40
2018-02-14T05:43:09.398Z,93.68
2018-02-14T05:45:37.142Z,89.50
2018-02-14T05:48:05.231Z,105.82
2018-02-14T05:50:33.030Z,110.15
2018-02-14T05:53:01.535Z,99.18
2018-02-14T05:55:29.284Z,98.70
2018-02-14T05:57:57.158Z,91.03
2018-02-14T06:00:24.913Z,92.32
2018-02-14T06:02:52.678Z,96.57
2018-02-14T06:05:20.483Z,92.72
2018-02-14T06:07:48.225Z,103.50
2018-02-14T06:10:15.972Z,92.78
2018-02-14T06:12:43.791Z,106.82
2018-02-14T06:15:11.542Z,84.00
2018-02-14T06:17:39.289Z,89.47
2018-02-14T06:20:07.098Z,108.30
2018-02-14T06:22:35.621Z,101.72
2018-02-14T06:25:03.378Z,96.32
2018-02-14T06:27:31.173Z,115.40
2018-02-14T06:29:58.918Z,123.75
2018-02-14T06:32:26.693Z,125.97
2018-02-14T06:34:54.542Z,140.45
2018-02-14T06:37:22.304Z,126.68
2018-02-14T06:39:50.053Z,115.35
2018-02-14T06:42:17.849Z,114.40
2018-02-14T06:44:45.594Z,113.05
2018-02-14T06:47:13.357Z,123.45
2018-02-14T06:49:41.158Z,107.53
2018-02-14T06:52:09.669Z,111.88
2018-02-14T06:54:37.419Z,122.40
2018-02-14T06:57:05.229Z,102.32
2018-02-14T06:59:32.964Z,133.40
2018-02-14T07:02:00.700Z,130.02
2018-02-14T07:04:28.507Z,104.55
2018-02-14T07:06:56.255Z,125.60
2018-02-14T07:09:24.137Z,110.10
2018-02-14T07:11:51.940Z,112.57
2018-02-14T07:14:20.469Z,113.80
2018-02-14T07:16:48.212Z,116.62
2018-02-14T07:19:16.027Z,121.35
2018-02-14T07:21:44.535Z,119.18
2018-02-14T07:24:12.285Z,117.47
2018-02-14T07:26:40.856Z,120.95
2018-02-14T07:29:09.387Z,114.90
2018-02-14T07:31:37.137Z,109.70
2018-02-14T07:34:04.942Z,117.05
2018-02-14T07:36:32.694Z,120.93
2018-02-14T07:39:00.445Z,108.25
2018-02-14T07:41:28.256Z,106.70
2018-02-14T07:43:56.769Z,107.40
2018-02-14T07:46:24.521Z,113.22
2018-02-14T07:48:52.328Z,99.47
2018-02-14T07:51:20.095Z,106.18
2018-02-14T07:53:47.837Z,104.97
2018-02-14T07:56:15.652Z,108.75
2018-02-14T07:58:43.404Z,98.53
2018-02-14T08:01:11.929Z,103.00
2018-02-14T08:03:39.720Z,111.68
2018-02-14T08:06:07.463Z,114.28
2018-02-14T08:08:35.215Z,99.62
2018-02-14T08:11:03.008Z,104.12
2018-02-14T08:13:30.763Z,100.87
2018-02-14T08:15:58.512Z,103.85
2018-02-14T08:18:26.304Z,101.00
2018-02-14T08:20:54.824Z,91.63
2018-02-14T08:23:22.650Z,108.20
2018-02-14T08:25:51.233Z,107.28
2018-02-14T08:28:20.902Z,109.53
2018-02-14T08:30:49.987Z,94.30
2018-02-14T08:33:19.248Z,95.00
2018-02-14T08:35:48.054Z,97.78
2018-02-14T08:38:15.806Z,95.87
2018-02-14T08:40:43.604Z,96.60
2018-02-14T08:43:11.359Z,98.62
2018-02-14T08:45:39.113Z,100.85
2018-02-14T08:48:06.913Z,110.30
2018-02-14T08:50:34.656Z,96.55
2018-02-14T08:53:02.413Z,98.70
2018-02-14T08:55:30.257Z,101.50
2018-02-14T08:57:58.004Z,100.30
2018-02-14T09:00:25.749Z,97.95
2018-02-14T09:02:53.583Z,94.22
2018-02-14T09:05:21.340Z,88.93
2018-02-14T09:07:49.093Z,91.80
2018-02-14T09:10:16.893Z,90.80
2018-02-14T09:12:45.421Z,95.18
2018-02-14T09:15:13.175Z,84.15
2018-02-14T09:17:40.969Z,87.82
2018-02-14T09:20:08.717Z,88.18
2018-02-14T09:22:36.453Z,92.25
2018-02-14T09:25:04.289Z,92.70
2018-02-14T09:27:32.053Z,75.05
2018-02-14T09:29:59.790Z,82.50
2018-02-14T09:32:28.357Z,82.70
2018-02-14T09:34:56.104Z,89.18
2018-02-14T09:37:23.846Z,91.45
2018-02-14T09:39:51.649Z,71.05
2018-02-14T09:42:19.392Z,72.57
2018-02-14T09:44:47.132Z,73.43
2018-02-14T09:47:14.937Z,66.90
2018-02-14T09:49:42.717Z,71.53
2018-02-14T09:52:11.228Z,70.00
2018-02-14T09:54:39.026Z,54.05
2018-02-14T09:57:06.774Z,71.03
2018-02-14T09:59:34.517Z,66.60
2018-02-14T10:02:02.313Z,71.75
2018-02-14T10:04:30.056Z,64.25
2018-02-14T10:06:57.811Z,63.63
2018-02-14T10:09:25.614Z,71.10
2018-02-14T10:11:54.149Z,55.70
2018-02-14T10:14:21.899Z,67.75
2018-02-14T10:16:50.515Z,67.20
2018-02-14T10:19:18.254Z,57.13
2018-02-14T10:21:45.997Z,54.13
2018-02-14T10:24:13.804Z,60.67
2018-02-14T10:26:41.544Z,62.95
2018-02-14T10:29:09.285Z,61.72
2018-02-14T10:31:37.073Z,62.08
2018-02-14T10:34:04.820Z,63.80
2018-02-14T10:36:32.559Z,65.75
2018-02-14T10:39:00.361Z,68.80
2018-02-14T10:41:28.103Z,60.92
2018-02-14T10:43:55.842Z,73.18
2018-02-14T10:46:23.760Z,75.47
2018-02-14T10:48:51.496Z,73.85
2018-02-14T10:51:19.232Z,66.75
2018-02-14T10:53:47.034Z,71.87
2018-02-14T10:56:14.781Z,94.20
2018-02-14T10:58:42.529Z,81.45
2018-02-14T11:01:15.927Z,79.15
2018-02-14T11:03:43.676Z,85.43
2018-02-14T11:06:13.344Z,95.03
2018-02-14T11:08:41.137Z,99.18
2018-02-14T11:11:09.632Z,115.68
2018-02-14T11:13:37.414Z,78.43
2018-02-14T11:16:05.233Z,88.45
2018-02-14T11:18:32.978Z,86.28
2018-02-14T11:21:01.482Z,93.40
2018-02-14T11:23:29.295Z,90.50
2018-02-14T11:25:57.045Z,104.95
2018-02-14T11:28:24.801Z,108.30
2018-02-14T11:30:52.597Z,111.53
2018-02-14T11:33:20.349Z,104.97
2018-02-14T11:35:48.096Z,110.60
2018-02-14T11:38:15.898Z,102.80
2018-02-14T11:40:44.412Z,100.70
2018-02-14T11:43:12.161Z,106.28
2018-02-14T11:45:39.965Z,100.93
2018-02-14T11:48:07.713Z,99.78
2018-02-14T11:50:35.449Z,91.32
2018-02-14T11:53:03.245Z,92.15
2018-02-14T11:55:31.006Z,91.55
2018-02-14T11:57:58.756Z,89.47
2018-02-14T12:00:26.553Z,89.25
2018-02-14T12:02:54.296Z,103.78
2018-02-14T12:05:22.036Z,84.60
2018-02-14T12:07:49.829Z,89.60
2018-02-14T12:10:17.574Z,104.20
2018-02-14T12:12:46.092Z,81.57
2018-02-14T12:15:14.653Z,82.75
2018-02-14T12:17:42.398Z,84.50
2018-02-14T12:20:10.148Z,85.68
2018-02-14T12:22:37.972Z,78.80
2018-02-14T12:25:05.712Z,75.95
2018-02-14T12:27:33.449Z,86.30
2018-02-14T12:30:01.245Z,70.20
2018-02-14T12:32:29.801Z,77.80
2018-02-14T12:34:57.548Z,74.87
2018-02-14T12:37:26.110Z,71.87
2018-02-14T12:39:53.849Z,75.72
2018-02-14T12:42:21.612Z,69.80
2018-02-14T12:44:49.407Z,73.78
2018-02-14T12:47:17.153Z,73.78
2018-02-14T12:49:44.894Z,76.32
2018-02-14T12:52:12.695Z,68.30
2018-02-14T12:54:40.461Z,76.25
2018-02-14T12:57:08.200Z,61.67
2018-02-14T12:59:35.993Z,62.45
2018-02-14T13:02:03.735Z,61.40
2018-02-14T13:04:31.488Z,54.78
2018-02-14T13:06:59.284Z,56.92
2018-02-14T13:09:27.032Z,61.40
2018-02-14T13:11:54.780Z,69.95
2018-02-14T13:14:22.580Z,68.20
2018-02-14T13:16:50.323Z,61.83
2018-02-14T13:19:18.078Z,62.03
2018-02-14T13:21:45.872Z,49.42
2018-02-14T13:24:14.386Z,58.47
2018-02-14T13:26:42.130Z,79.50
2018-02-14T13:29:09.948Z,59.97
2018-02-14T13:31:37.688Z,57.83
2018-02-14T13:34:05.428Z,73.85
2018-02-14T13:36:33.641Z,64.62
2018-02-14T13:39:01.417Z,62.70
2018-02-14T13:41:29.186Z,74.32
2018-02-14T13:43:56.990Z,60.28
2018-02-14T13:46:24.732Z,80.05
2018-02-14T13:48:53.245Z,59.85
2018-02-14T13:51:21.045Z,72.82
2018-02-14T13:53:48.816Z,70.35
2018-02-14T13:56:16.559Z,72.40
2018-02-14T13:58:44.358Z,78.22
2018-02-14T14:01:12.888Z,77.35
2018-02-14T14:03:40.636Z,86.70
2018-02-14T14:06:08.426Z,76.07
2018-02-14T14:08:36.174Z,75.32
2018-02-14T14:11:04.810Z,74.60
2018-02-14T14:13:32.609Z,73.80
2018-02-14T14:16:00.353Z,67.28
2018-02-14T14:18:28.103Z,70.57
2018-02-14T14:20:55.923Z,63.67
2018-02-14T14:23:23.677Z,69.62
2018-02-14T14:25:51.424Z,69.55
2018-02-14T14:28:19.227Z,67.22
2018-02-14T14:30:47.742Z,77.28
2018-02-14T14:33:15.484Z,76.53
2018-02-14T14:35:43.281Z,71.37
2018-02-14T14:38:11.021Z,76.68
2018-02-14T14:40:38.764Z,69.55
2018-02-14T14:43:07.325Z,59.10
2018-02-14T14:45:35.078Z,59.55
2018-02-14T14:48:02.832Z,60.67
2018-02-14T14:50:30.633Z,63.58
2018-02-14T14:52:59.173Z,59.85
2018-02-14T14:55:26.930Z,65.15
2018-02-14T14:57:54.733Z,66.20
2018-02-14T15:00:23.250Z,64.62
2018-02-14T15:02:50.995Z,65.80
2018-02-14T15:05:18.813Z,54.15
2018-02-14T15:07:46.560Z,70.90
2018-02-14T15:10:14.307Z,55.88
2018-02-14T15:12:42.109Z,69.50
2018-02-14T15:15:09.848Z,69.25
2018-02-14T15:17:37.612Z,56.17
2018-02-14T15:20:05.413Z,56.37
2018-02-14T15:22:33.919Z,68.10
2018-02-14T15:25:01.661Z,60.95
2018-02-14T15:27:29.462Z,60.47
2018-02-14T15:29:57.973Z,58.28
2018-02-14T15:32:25.711Z,62.97
2018-02-14T15:34:54.271Z,69.25
2018-02-14T15:37:22.013Z,71.32
2018-02-14T15:39:49.776Z,66.75
2018-02-14T15:42:17.583Z,72.95
2018-02-14T15:44:45.338Z,76.75
2018-02-14T15:47:13.128Z,69.35
2018-02-14T15:49:41.712Z,59.20
2018-02-14T15:52:09.456Z,70.37
2018-02-14T15:54:37.205Z,63.95
2018-02-14T15:57:05.010Z,70.10
2018-02-14T15:59:33.519Z,66.95
2018-02-14T16:02:01.264Z,57.40
2018-02-14T16:04:29.897Z,72.50
2018-02-14T16:06:57.672Z,67.55
2018-02-14T16:09:25.434Z,69.82
2018-02-14T16:11:53.229Z,72.60
2018-02-14T16:14:20.970Z,74.05
2018-02-14T16:16:49.490Z,68.97
2018-02-14T16:19:17.346Z,78.78
2018-02-14T16:21:45.095Z,73.72
2018-02-14T16:24:12.836Z,68.80
2018-02-14T16:26:41.400Z,81.00
2018-02-14T16:29:09.139Z,63.10
2018-02-14T16:31:37.908Z,74.70
2018-02-14T16:34:05.711Z,78.00
2018-02-14T16:36:33.456Z,66.62
2018-02-14T16:39:01.961Z,71.68
2018-02-14T16:41:30.533Z,72.32
2018-02-14T16:43:58.276Z,64.40
2018-02-14T16:46:26.027Z,62.30
2018-02-14T16:48:53.847Z,69.53
2018-02-14T16:51:21.629Z,70.87
2018-02-14T16:53:49.378Z,63.95
2018-02-14T16:56:17.182Z,72.93
2018-02-14T16:58:44.917Z,87.05
2018-02-14T17:01:12.657Z,71.47
2018-02-14T17:03:40.455Z,76.85
2018-02-14T17:06:08.199Z,67.15
2018-02-14T17:08:35.993Z,70.95
2018-02-14T17:11:03.793Z,77.22
2018-02-14T17:13:32.305Z,72.05
2018-02-14T17:16:00.046Z,83.87
2018-02-14T17:18:27.857Z,77.70
2018-02-14T17:20:55.603Z,74.00
2018-02-14T17:23:23.346Z,73.20
2018-02-14T17:25:51.144Z,90.60
2018-02-14T17:28:18.886Z,69.45
2018-02-14T17:30:46.632Z,78.07
2018-02-14T17:33:14.429Z,82.85
2018-02-14T17:35:42.189Z,95.15
2018-02-14T17:38:09.937Z,68.15
2018-02-14T17:40:37.729Z,79.72
2018-02-14T17:43:05.483Z,89.93
2018-02-14T17:45:33.233Z,87.68
2018-02-14T17:48:01.033Z,69.37
2018-02-14T17:50:29.540Z,88.43
2018-02-14T17:52:57.276Z,85.72
2018-02-14T17:55:25.845Z,82.53
2018-02-14T17:57:53.587Z,86.40
2018-02-14T18:00:21.335Z,80.50
2018-02-14T18:02:49.133Z,80.10
2018-02-14T18:05:16.881Z,73.68
2018-02-14T18:07:44.625Z,75.82
2018-02-14T18:10:12.417Z,81.63
2018-02-14T18:12:40.157Z,81.25
2018-02-14T18:15:07.897Z,75.75
2018-02-14T18:17:35.698Z,82.32
2018-02-14T18:20:03.454Z,89.18
2018-02-14T18:22:31.211Z,90.82
2018-02-14T18:24:59.077Z,77.80
2018-02-14T18:27:26.824Z,82.95
2018-02-14T18:29:54.576Z,82.80
2018-02-14T18:32:22.404Z,92.45
2018-02-14T18:34:50.147Z,96.50
2018-02-14T18:37:18.658Z,102.68
2018-02-14T18:39:46.456Z,93.28
2018-02-14T18:42:16.186Z,81.53
2018-02-14T18:44:44.214Z,86.12
2018-02-14T18:47:12.021Z,91.47
2018-02-14T18:49:40.540Z,94.15
2018-02-14T18:52:08.292Z,101.65
2018-02-14T18:54:36.325Z,98.37
2018-02-14T18:57:04.836Z,92.07
2018-02-14T18:59:32.576Z,95.62
2018-02-14T19:02:01.138Z,101.03
2018-02-14T19:04:28.908Z,98.37
2018-02-14T19:06:57.423Z,79.75
2018-02-14T19:09:25.237Z,100.90
2018-02-14T19:11:52.981Z,86.95
2018-02-14T19:14:20.736Z,92.20
2018-02-14T19:16:48.539Z,95.07
2018-02-14T19:19:17.049Z,106.50
2018-02-14T19:21:44.795Z,106.70
2018-02-14T19:24:13.391Z,79.00
2018-02-14T19:26:41.163Z,104.78
2018-02-14T19:29:08.906Z,95.78
2018-02-14T19:31:36.710Z,90.25
2018-02-14T19:34:04.444Z,93.30
2018-02-14T19:36:32.196Z,99.35
2018-02-14T19:39:00.017Z,105.90
2018-02-14T19:41:27.774Z,101.45
2018-02-14T19:43:55.526Z,105.35
2018-02-14T19:46:23.332Z,102.78
2018-02-14T19:48:51.874Z,97.05
2018-02-14T19:51:19.611Z,99.62
2018-02-14T19:53:47.421Z,96.18
2018-02-14T19:56:15.177Z,87.68
2018-02-14T19:58:42.917Z,97.97
2018-02-14T20:01:10.738Z,102.55
2018-02-14T20:03:38.498Z,93.10
2018-02-14T20:06:06.257Z,93.03
2018-02-14T20:08:34.053Z,89.37
2018-02-14T20:11:01.801Z,100.85
2018-02-14T20:13:29.545Z,86.68
2018-02-14T20:15:57.362Z,90.25
2018-02-14T20:18:25.114Z,91.78
2018-02-14T20:20:52.851Z,99.62
2018-02-14T20:23:20.662Z,97.93
2018-02-14T20:25:48.416Z,95.57
2018-02-14T20:28:16.157Z,96.57
2018-02-14T20:30:44.011Z,94.55
2018-02-14T20:33:11.769Z,95.00
2018-02-14T20:35:39.790Z,98.15
2018-02-14T20:38:08.405Z,89.78
2018-02-14T20:40:36.280Z,102.60
2018-02-14T20:43:04.028Z,101.95
2018-02-14T20:45:31.856Z,99.03
2018-02-14T20:48:00.421Z,101.03
2018-02-14T20:50:28.202Z,102.90
2018-02-14T20:52:56.779Z,104.65
2018-02-14T20:55:25.296Z,103.65
2018-02-14T20:57:53.101Z,93.25
2018-02-14T21:00:20.972Z,91.22
2018-02-14T21:02:48.733Z,95.10
2018-02-14T21:05:16.489Z,98.18
2018-02-14T21:07:44.292Z,101.28
2018-02-14T21:10:12.047Z,102.20
2018-02-14T21:12:39.854Z,105.43
2018-02-14T21:15:07.711Z,95.53
2018-02-14T21:17:35.551Z,101.12
2018-02-14T21:20:03.314Z,95.20
2018-02-14T21:22:31.141Z,96.55
2018-02-14T21:24:59.660Z,93.12
2018-02-14T21:27:27.436Z,97.88
2018-02-14T21:29:55.937Z,104.40
2018-02-14T21:32:23.691Z,102.75
2018-02-14T21:34:51.452Z,97.65
2018-02-14T21:37:19.253Z,105.00
2018-02-14T21:39:46.998Z,103.62
2018-02-14T21:42:14.747Z,93.78
2018-02-14T21:44:42.575Z,96.53
2018-02-14T21:47:10.369Z,100.93
2018-02-14T21:49:38.121Z,120.25
2018-02-14T21:52:05.916Z,113.12
2018-02-14T21:54:34.694Z,118.50
2018-02-14T21:57:02.752Z,89.70
2018-02-14T21:59:30.595Z,119.57
2018-02-14T22:01:58.374Z,120.80
2018-02-14T22:04:26.118Z,108.87
2018-02-14T22:06:53.929Z,112.18
2018-02-14T22:09:22.446Z,91.15
2018-02-14T22:11:50.185Z,89.65
2018-02-14T22:14:18.008Z,103.03
2018-02-14T22:16:45.755Z,101.00
2018-02-14T22:19:13.552Z,118.07
2018-02-14T22:21:42.128Z,114.25
2018-02-14T22:24:09.877Z,124.97
2018-02-14T22:26:37.628Z,110.37
2018-02-14T22:29:05.424Z,100.97
2018-02-14T22:31:33.928Z,87.85
2018-02-14T22:34:01.668Z,98.40
2018-02-14T22:36:30.233Z,133.07
2018-02-14T22:38:57.978Z,82.88
2018-02-14T22:41:25.720Z,92.15
2018-02-14T22:43:53.518Z,103.30
2018-02-14T22:46:21.261Z,88.85
2018-02-14T22:48:49.002Z,94.28
2018-02-14T22:51:16.800Z,100.28
2018-02-14T22:53:44.545Z,103.15
2018-02-14T22:56:12.282Z,94.00
2018-02-14T22:58:40.079Z,110.50
2018-02-14T23:01:07.826Z,97.80
2018-02-14T23:03:35.565Z,96.72
2018-02-14T23:06:03.362Z,91.97
2018-02-14T23:08:31.114Z,83.40
2018-02-14T23:10:58.856Z,97.32
2018-02-14T23:13:26.652Z,103.03
2018-02-14T23:15:54.392Z,99.75
2018-02-14T23:18:22.137Z,90.40
2018-02-14T23:20:49.940Z,103.75
2018-02-14T23:23:17.731Z,90.35
2018-02-14T23:25:46.245Z,94.47
2018-02-14T23:28:14.225Z,98.93
2018-02-14T23:30:41.972Z,90.80
2018-02-14T23:33:09.710Z,98.72
2018-02-14T23:35:37.508Z,101.50
2018-02-14T23:38:06.017Z,110.57
2018-02-14T23:40:33.764Z,99.90
2018-02-14T23:43:01.567Z,110.43
2018-02-14T23:45:29.313Z,120.40
2018-02-14T23:47:57.817Z,93.45
2018-02-14T23:50:25.621Z,92.72
2018-02-14T23:52:53.359Z,95.70
2018-02-14T23:55:22.850Z,99.32
2018-02-14T23:57:50.653Z,109.40
